createdAt,value
2022-10-22T00:01:00.516Z,15.18
2022-10-22T00:03:28.326Z,15.16
2022-10-22T00:05:56.271Z,15.13
2022-10-22T00:08:24.252Z,15.11
2022-10-22T00:10:52.913Z,15.10
2022-10-22T00:13:22.194Z,15.06
2022-10-22T00:15:50.062Z,15.04
2022-10-22T00:18:17.924Z,15.00
2022-10-22T00:20:45.763Z,14.98
2022-10-22T00:23:13.953Z,14.95
2022-10-22T00:25:41.757Z,14.93
2022-10-22T00:28:12.711Z,14.92
2022-10-22T00:30:42.097Z,14.91
2022-10-22T00:33:09.972Z,14.90
2022-10-22T00:35:40.593Z,14.91
2022-10-22T00:38:08.428Z,14.90
2022-10-22T00:40:36.332Z,14.90
2022-10-22T00:43:04.278Z,14.92
2022-10-22T00:45:32.211Z,14.95
2022-10-22T00:48:05.957Z,14.97
2022-10-22T00:50:36.986Z,14.96
2022-10-22T00:53:08.102Z,14.98
2022-10-22T00:55:36.492Z,15.01
2022-10-22T00:58:05.243Z,15.02
2022-10-22T01:00:33.911Z,15.02
2022-10-22T01:03:03.386Z,15.04
2022-10-22T01:05:34.237Z,15.03
2022-10-22T01:08:02.105Z,15.04
2022-10-22T01:10:46.436Z,15.04
2022-10-22T01:13:24.351Z,15.05
2022-10-22T01:15:58.246Z,15.03
2022-10-22T01:18:36.580Z,15.02
2022-10-22T01:21:13.643Z,15.02
2022-10-22T01:23:58.992Z,15.00
2022-10-22T01:26:34.640Z,14.99
2022-10-22T01:29:10.312Z,14.96
2022-10-22T01:31:44.608Z,14.94
2022-10-22T01:34:15.336Z,14.90
2022-10-22T01:36:45.177Z,14.89
2022-10-22T01:39:15.290Z,14.85
2022-10-22T01:41:45.341Z,14.82
2022-10-22T01:44:29.614Z,14.73
2022-10-22T01:47:09.101Z,14.70
2022-10-22T01:49:57.430Z,14.67
2022-10-22T01:52:33.378Z,14.65
2022-10-22T01:55:21.254Z,14.65
2022-10-22T01:57:56.271Z,14.63
2022-10-22T02:00:25.820Z,14.63
2022-10-22T02:03:00.786Z,14.61
2022-10-22T02:05:33.996Z,14.59
2022-10-22T02:08:06.766Z,14.58
2022-10-22T02:10:38.351Z,14.57
2022-10-22T02:13:10.872Z,14.54
2022-10-22T02:15:41.124Z,14.52
2022-10-22T02:18:11.236Z,14.51
2022-10-22T02:20:41.877Z,14.50
2022-10-22T02:23:10.869Z,14.49
2022-10-22T02:25:41.831Z,14.49
2022-10-22T02:28:16.342Z,14.47
2022-10-22T02:30:52.229Z,14.46
2022-10-22T02:33:23.966Z,14.46
2022-10-22T02:35:54.227Z,14.45
2022-10-22T02:38:23.944Z,14.45
2022-10-22T02:40:51.909Z,14.44
2022-10-22T02:43:19.851Z,14.44
2022-10-22T02:45:48.989Z,14.42
2022-10-22T02:48:16.862Z,14.38
2022-10-22T02:50:44.669Z,14.36
2022-10-22T02:53:12.455Z,14.34
2022-10-22T02:55:40.232Z,14.33
2022-10-22T02:58:07.924Z,14.33
2022-10-22T03:00:35.723Z,14.33
2022-10-22T03:03:04.938Z,14.37
2022-10-22T03:05:32.675Z,14.38
2022-10-22T03:08:00.543Z,14.40
2022-10-22T03:10:28.784Z,14.41
2022-10-22T03:12:57.083Z,14.47
2022-10-22T03:15:24.927Z,14.54
2022-10-22T03:17:52.816Z,14.59
2022-10-22T03:20:21.929Z,14.68
2022-10-22T03:22:49.719Z,14.76
2022-10-22T03:25:22.010Z,14.82
2022-10-22T03:27:50.750Z,14.87
2022-10-22T03:30:18.647Z,14.93
2022-10-22T03:32:46.486Z,14.98
2022-10-22T03:35:14.484Z,15.04
2022-10-22T03:37:43.843Z,15.07
2022-10-22T03:40:12.917Z,15.10
2022-10-22T03:42:41.261Z,15.13
2022-10-22T03:45:10.342Z,15.17
2022-10-22T03:47:38.555Z,15.19
2022-10-22T03:50:07.673Z,15.22
2022-10-22T03:52:38.045Z,15.24
2022-10-22T03:55:08.924Z,15.27
2022-10-22T03:57:40.163Z,15.29
2022-10-22T04:00:10.067Z,15.29
2022-10-22T04:02:37.807Z,15.29
2022-10-22T04:05:06.210Z,15.30
2022-10-22T04:07:34.049Z,15.32
2022-10-22T04:10:01.833Z,15.32
2022-10-22T04:12:30.979Z,15.34
2022-10-22T04:14:58.739Z,15.34
2022-10-22T04:17:26.489Z,15.35
2022-10-22T04:19:54.384Z,15.35
2022-10-22T04:22:22.228Z,15.32
2022-10-22T04:27:18.622Z,15.31
2022-10-22T04:29:48.053Z,15.33
2022-10-22T04:32:15.838Z,15.32
2022-10-22T04:34:43.775Z,15.32
2022-10-22T04:37:11.587Z,15.31
2022-10-22T04:39:39.553Z,15.31
2022-10-22T04:42:07.568Z,15.29
2022-10-22T04:44:35.571Z,15.29
2022-10-22T04:47:04.931Z,15.27
2022-10-22T04:49:32.733Z,15.28
2022-10-22T04:52:00.525Z,15.27
2022-10-22T04:54:32.178Z,15.26
2022-10-22T04:57:01.077Z,15.26
2022-10-22T04:59:28.819Z,15.24
2022-10-22T05:01:56.669Z,15.24
2022-10-22T05:04:25.827Z,15.24
2022-10-22T05:06:53.691Z,15.22
2022-10-22T05:09:22.643Z,15.20
2022-10-22T05:11:52.387Z,15.19
2022-10-22T05:14:22.902Z,15.18
2022-10-22T05:16:51.335Z,15.19
2022-10-22T05:19:21.474Z,15.18
2022-10-22T05:21:50.677Z,15.18
2022-10-22T05:24:18.519Z,15.21
2022-10-22T05:26:46.712Z,15.22
2022-10-22T05:29:14.897Z,15.25
2022-10-22T05:31:42.784Z,15.24
2022-10-22T05:34:13.973Z,15.24
2022-10-22T05:36:42.141Z,15.25
2022-10-22T05:39:11.367Z,15.27
2022-10-22T05:41:39.517Z,15.30
2022-10-22T05:44:07.329Z,15.32
2022-10-22T05:46:36.910Z,15.32
2022-10-22T05:49:06.908Z,15.33
2022-10-22T05:51:37.126Z,15.33
2022-10-22T05:54:07.512Z,15.33
2022-10-22T05:56:38.132Z,15.34
2022-10-22T05:59:06.210Z,15.33
2022-10-22T06:01:35.922Z,15.34
2022-10-22T06:04:05.989Z,15.34
2022-10-22T06:06:36.197Z,15.34
2022-10-22T06:09:07.867Z,15.33
2022-10-22T06:11:37.617Z,15.34
2022-10-22T06:14:05.977Z,15.33
2022-10-22T06:16:33.790Z,15.28
2022-10-22T06:19:02.163Z,15.26
2022-10-22T06:21:30.826Z,15.24
2022-10-22T06:23:59.136Z,15.22
2022-10-22T06:26:27.285Z,15.21
2022-10-22T06:28:57.233Z,15.19
2022-10-22T06:31:28.571Z,15.19
2022-10-22T06:33:57.933Z,15.18
2022-10-22T06:36:26.300Z,15.16
2022-10-22T06:38:54.918Z,15.14
2022-10-22T06:41:27.179Z,15.16
2022-10-22T06:44:00.252Z,15.16
2022-10-22T06:46:28.562Z,15.17
2022-10-22T06:48:59.129Z,15.19
2022-10-22T06:51:28.186Z,15.21
2022-10-22T06:53:56.820Z,15.21
2022-10-22T06:56:26.507Z,15.25
2022-10-22T06:58:56.392Z,15.27
2022-10-22T07:01:28.034Z,15.31
2022-10-22T07:03:55.987Z,15.35
2022-10-22T07:06:25.171Z,15.39
2022-10-22T07:08:54.514Z,15.43
2022-10-22T07:11:24.091Z,15.47
2022-10-22T07:13:52.926Z,15.51
2022-10-22T07:16:20.820Z,15.56
2022-10-22T07:18:50.089Z,15.62
2022-10-22T07:21:20.314Z,15.68
2022-10-22T07:23:48.171Z,15.75
2022-10-22T07:26:20.348Z,15.87
2022-10-22T07:28:48.730Z,15.93
2022-10-22T07:31:17.240Z,15.94
2022-10-22T07:33:45.504Z,15.95
2022-10-22T07:36:17.792Z,15.96
2022-10-22T07:38:46.130Z,15.98
2022-10-22T07:41:14.465Z,16.03
2022-10-22T07:43:42.439Z,16.08
2022-10-22T07:46:10.271Z,16.10
2022-10-22T07:48:38.406Z,16.15
2022-10-22T07:51:06.914Z,16.18
2022-10-22T07:53:36.144Z,16.21
2022-10-22T07:56:04.390Z,16.24
2022-10-22T07:58:32.546Z,16.28
2022-10-22T08:01:02.025Z,16.33
2022-10-22T08:03:30.838Z,16.36
2022-10-22T08:05:59.053Z,16.41
2022-10-22T08:08:30.466Z,16.46
2022-10-22T08:11:01.791Z,16.52
2022-10-22T08:13:31.186Z,16.57
2022-10-22T08:16:00.112Z,16.64
2022-10-22T08:18:28.143Z,16.70
2022-10-22T08:20:55.916Z,16.74
2022-10-22T08:23:26.106Z,16.78
2022-10-22T08:25:56.150Z,16.81
2022-10-22T08:28:25.438Z,16.83
2022-10-22T08:30:53.260Z,16.87
2022-10-22T08:33:21.086Z,16.88
2022-10-22T08:35:50.563Z,16.90
2022-10-22T08:38:18.809Z,16.89
2022-10-22T08:40:51.175Z,16.86
2022-10-22T08:43:51.591Z,16.78
2022-10-22T08:46:38.589Z,16.76
2022-10-22T08:49:11.175Z,16.80
2022-10-22T08:51:40.568Z,16.81
2022-10-22T08:54:19.699Z,16.80
2022-10-22T08:56:55.955Z,16.83
2022-10-22T08:59:29.250Z,16.86
2022-10-22T09:01:56.997Z,16.88
2022-10-22T09:04:29.927Z,16.91
2022-10-22T09:07:00.105Z,16.97
2022-10-22T09:09:32.834Z,17.02
2022-10-22T09:12:02.559Z,17.08
2022-10-22T09:14:31.931Z,17.12
2022-10-22T09:17:21.968Z,17.10
2022-10-22T09:20:03.104Z,17.12
2022-10-22T09:22:39.490Z,17.16
2022-10-22T09:25:20.448Z,17.17
2022-10-22T09:27:48.852Z,17.24
2022-10-22T09:30:19.407Z,17.29
2022-10-22T09:32:47.349Z,17.26
2022-10-22T09:35:15.868Z,17.30
2022-10-22T09:37:53.357Z,17.27
2022-10-22T09:40:22.269Z,17.25
2022-10-22T09:42:50.530Z,17.27
2022-10-22T09:45:22.328Z,17.30
2022-10-22T09:48:01.552Z,17.36
2022-10-22T09:50:38.095Z,17.42
2022-10-22T09:53:13.413Z,17.49
2022-10-22T09:55:43.224Z,17.55
2022-10-22T09:58:12.926Z,17.63
2022-10-22T10:00:45.901Z,17.67
2022-10-22T10:03:18.952Z,17.72
2022-10-22T10:05:49.817Z,17.80
2022-10-22T10:08:19.285Z,17.83
2022-10-22T10:10:49.452Z,17.88
2022-10-22T10:13:32.028Z,17.87
2022-10-22T10:16:09.620Z,17.92
2022-10-22T10:18:52.896Z,17.95
2022-10-22T10:21:27.805Z,18.00
2022-10-22T10:24:03.672Z,18.05
2022-10-22T10:26:36.877Z,18.11
2022-10-22T10:29:19.867Z,18.08
2022-10-22T10:32:09.173Z,18.18
2022-10-22T10:34:46.044Z,18.29
2022-10-22T10:37:23.215Z,18.37
2022-10-22T10:40:11.416Z,18.41
2022-10-22T10:42:45.515Z,18.46
2022-10-22T10:45:18.911Z,18.48
2022-10-22T10:48:23.041Z,18.49
2022-10-22T10:51:05.147Z,18.54
2022-10-22T10:53:48.785Z,18.59
2022-10-22T10:56:34.397Z,18.61
2022-10-22T10:59:15.434Z,18.60
2022-10-22T11:01:55.181Z,18.62
2022-10-22T11:05:22.364Z,18.59
2022-10-22T11:07:56.119Z,18.73
2022-10-22T11:10:30.921Z,18.75
2022-10-22T11:13:03.629Z,18.76
2022-10-22T11:15:35.071Z,18.81
2022-10-22T11:18:12.956Z,18.81
2022-10-22T11:20:51.790Z,18.81
2022-10-22T11:23:25.864Z,18.85
2022-10-22T11:25:53.946Z,18.88
2022-10-22T11:28:27.141Z,18.89
2022-10-22T11:31:01.202Z,18.96
2022-10-22T11:33:37.608Z,18.92
2022-10-22T11:36:08.770Z,18.90
2022-10-22T11:38:38.236Z,18.88
2022-10-22T11:41:11.029Z,18.89
2022-10-22T11:43:57.589Z,18.84
2022-10-22T11:46:36.540Z,18.87
2022-10-22T11:49:17.143Z,18.90
2022-10-22T11:51:47.531Z,18.94
2022-10-22T11:54:42.475Z,18.84
2022-10-22T11:57:29.237Z,18.88
2022-10-22T12:00:01.911Z,18.96
2022-10-22T12:02:41.262Z,18.97
2022-10-22T12:05:36.253Z,19.00
2022-10-22T12:08:24.717Z,19.10
2022-10-22T12:11:01.475Z,19.16
2022-10-22T12:13:32.955Z,19.23
2022-10-22T12:16:04.753Z,19.25
2022-10-22T12:18:42.348Z,19.28
2022-10-22T12:21:13.985Z,19.23
2022-10-22T12:23:44.897Z,19.23
2022-10-22T12:26:25.591Z,19.28
2022-10-22T12:28:58.794Z,19.30
2022-10-22T12:31:26.855Z,19.35
2022-10-22T12:33:58.831Z,19.39
2022-10-22T12:36:28.296Z,19.46
2022-10-22T12:39:00.810Z,19.50
2022-10-22T12:41:32.972Z,19.42
2022-10-22T12:44:01.670Z,19.48
2022-10-22T12:46:33.214Z,19.50
2022-10-22T12:49:03.052Z,19.48
2022-10-22T12:54:10.578Z,19.52
2022-10-22T12:56:39.254Z,19.57
2022-10-22T12:59:14.965Z,19.58
2022-10-22T13:01:44.515Z,19.61
2022-10-22T13:04:35.380Z,19.55
2022-10-22T13:07:22.475Z,19.55
2022-10-22T13:10:00.656Z,19.52
2022-10-22T13:12:35.838Z,19.55
2022-10-22T13:15:34.034Z,19.49
2022-10-22T13:18:08.151Z,19.55
2022-10-22T13:20:37.424Z,19.60
2022-10-22T13:23:06.919Z,19.64
2022-10-22T13:25:38.576Z,19.66
2022-10-22T13:28:20.433Z,19.58
2022-10-22T13:30:54.292Z,19.62
2022-10-22T13:33:27.647Z,19.58
2022-10-22T13:35:57.491Z,19.59
2022-10-22T13:38:27.554Z,19.58
2022-10-22T13:40:57.424Z,19.55
2022-10-22T13:43:26.320Z,19.55
2022-10-22T13:45:56.999Z,19.61
2022-10-22T13:48:26.739Z,19.60
2022-10-22T13:50:54.912Z,19.64
2022-10-22T13:53:25.067Z,19.68
2022-10-22T13:55:55.913Z,19.75
2022-10-22T13:58:25.829Z,19.73
2022-10-22T14:00:56.962Z,19.71
2022-10-22T14:03:29.196Z,19.72
2022-10-22T14:05:57.229Z,19.73
2022-10-22T14:08:28.094Z,19.70
2022-10-22T14:10:56.057Z,19.67
2022-10-22T14:13:25.583Z,19.63
2022-10-22T14:15:53.737Z,19.68
2022-10-22T14:18:26.734Z,19.65
2022-10-22T14:20:56.252Z,19.65
2022-10-22T14:23:26.462Z,19.64
2022-10-22T14:25:54.411Z,19.66
2022-10-22T14:28:22.337Z,19.66
2022-10-22T14:30:52.905Z,19.70
2022-10-22T14:33:27.263Z,19.74
2022-10-22T14:35:59.343Z,19.79
2022-10-22T14:38:27.480Z,19.78
2022-10-22T14:40:55.910Z,19.76
2022-10-22T14:43:27.637Z,19.80
2022-10-22T14:45:57.466Z,19.87
2022-10-22T14:48:25.828Z,19.85
2022-10-22T14:50:53.648Z,19.80
2022-10-22T14:53:21.382Z,19.78
2022-10-22T14:55:51.457Z,19.82
2022-10-22T14:58:19.203Z,19.80
2022-10-22T15:00:47.118Z,19.80
2022-10-22T15:03:16.409Z,19.81
2022-10-22T15:05:45.414Z,19.83
2022-10-22T15:08:14.516Z,19.83
2022-10-22T15:10:44.931Z,19.81
2022-10-22T15:13:12.774Z,19.76
2022-10-22T15:15:41.143Z,19.73
2022-10-22T15:18:09.323Z,19.71
2022-10-22T15:20:38.462Z,19.69
2022-10-22T15:23:06.345Z,19.63
2022-10-22T15:25:34.114Z,19.61
2022-10-22T15:28:09.072Z,19.59
2022-10-22T15:30:37.807Z,19.58
2022-10-22T15:33:06.393Z,19.55
2022-10-22T15:35:34.266Z,19.49
2022-10-22T15:38:06.473Z,19.47
2022-10-22T15:40:34.357Z,19.44
2022-10-22T15:43:02.162Z,19.40
2022-10-22T15:45:30.008Z,19.37
2022-10-22T15:47:58.401Z,19.36
2022-10-22T15:50:26.258Z,19.35
2022-10-22T15:52:54.266Z,19.32
2022-10-22T15:55:23.455Z,19.28
2022-10-22T15:57:55.172Z,19.21
2022-10-22T16:00:25.043Z,19.16
2022-10-22T16:02:54.633Z,19.11
2022-10-22T16:05:22.616Z,19.06
2022-10-22T16:07:51.492Z,18.98
2022-10-22T16:10:19.395Z,18.92
2022-10-22T16:12:51.457Z,18.84
2022-10-22T16:15:19.329Z,18.80
2022-10-22T16:17:47.092Z,18.76
2022-10-22T16:20:14.852Z,18.72
2022-10-22T16:22:42.834Z,18.70
2022-10-22T16:25:10.912Z,18.69
2022-10-22T16:27:39.292Z,18.65
2022-10-22T16:30:09.322Z,18.59
2022-10-22T16:32:37.191Z,18.53
2022-10-22T16:35:05.337Z,18.48
2022-10-22T16:37:33.178Z,18.45
2022-10-22T16:40:04.423Z,18.41
2022-10-22T16:42:35.910Z,18.36
2022-10-22T16:45:03.764Z,18.32
2022-10-22T16:47:32.917Z,18.28
2022-10-22T16:50:01.255Z,18.23
2022-10-22T16:52:29.077Z,18.19
2022-10-22T16:54:58.250Z,18.13
2022-10-22T16:57:26.080Z,18.10
2022-10-22T16:59:53.958Z,18.04
2022-10-22T17:02:22.293Z,17.99
2022-10-22T17:04:51.462Z,17.97
2022-10-22T17:07:19.350Z,17.91
2022-10-22T17:09:47.135Z,17.87
2022-10-22T17:12:14.885Z,17.83
2022-10-22T17:14:42.696Z,17.77
2022-10-22T17:17:10.571Z,17.70
2022-10-22T17:19:39.179Z,17.61
2022-10-22T17:22:08.756Z,17.55
2022-10-22T17:24:36.500Z,17.46
2022-10-22T17:29:37.272Z,17.29
2022-10-22T17:32:05.332Z,17.21
2022-10-22T17:34:33.331Z,17.15
2022-10-22T17:37:01.165Z,17.11
2022-10-22T17:39:30.291Z,17.05
2022-10-22T17:41:58.094Z,16.99
2022-10-22T17:44:25.821Z,16.94
2022-10-22T17:46:53.991Z,16.90
2022-10-22T17:49:21.809Z,16.87
2022-10-22T17:51:49.652Z,16.81
2022-10-22T17:54:17.530Z,16.75
2022-10-22T17:56:46.763Z,16.72
2022-10-22T17:59:17.132Z,16.67
2022-10-22T18:01:47.665Z,16.62
2022-10-22T18:04:17.764Z,16.58
2022-10-22T18:06:47.033Z,16.52
2022-10-22T18:09:18.493Z,16.47
2022-10-22T18:11:48.842Z,16.44
2022-10-22T18:14:17.948Z,16.38
2022-10-22T18:16:46.344Z,16.33
2022-10-22T18:19:16.549Z,16.29
2022-10-22T18:21:44.214Z,16.23
2022-10-22T18:24:12.293Z,16.19
2022-10-22T18:26:40.098Z,16.15
2022-10-22T18:29:09.297Z,16.10
2022-10-22T18:31:37.098Z,16.06
2022-10-22T18:34:04.920Z,16.01
2022-10-22T18:36:32.654Z,15.95
2022-10-22T18:39:01.795Z,15.92
2022-10-22T18:41:30.909Z,15.87
2022-10-22T18:44:00.268Z,15.84
2022-10-22T18:46:30.955Z,15.79
2022-10-22T18:48:59.998Z,15.75
2022-10-22T18:51:30.642Z,15.72
2022-10-22T18:54:05.229Z,15.67
2022-10-22T18:56:40.817Z,15.63
2022-10-22T18:59:15.016Z,15.59
2022-10-22T19:01:44.183Z,15.56
2022-10-22T19:04:13.695Z,15.52
2022-10-22T19:06:44.489Z,15.48
2022-10-22T19:09:14.522Z,15.46
2022-10-22T19:11:43.489Z,15.43
2022-10-22T19:14:11.297Z,15.42
2022-10-22T19:16:39.374Z,15.41
2022-10-22T19:19:09.477Z,15.40
2022-10-22T19:21:38.215Z,15.39
2022-10-22T19:24:06.688Z,15.39
2022-10-22T19:26:35.332Z,15.39
2022-10-22T19:29:03.498Z,15.37
2022-10-22T19:31:32.152Z,15.37
2022-10-22T19:34:02.080Z,15.35
2022-10-22T19:36:32.818Z,15.34
2022-10-22T19:39:01.016Z,15.32
2022-10-22T19:41:30.754Z,15.30
2022-10-22T19:44:00.710Z,15.28
2022-10-22T19:46:32.465Z,15.28
2022-10-22T19:49:01.010Z,15.27
2022-10-22T19:51:33.843Z,15.26
2022-10-22T19:54:04.769Z,15.24
2022-10-22T19:56:33.934Z,15.22
2022-10-22T19:59:01.752Z,15.20
2022-10-22T20:01:31.834Z,15.18
2022-10-22T20:04:00.264Z,15.18
2022-10-22T20:06:28.523Z,15.17
2022-10-22T20:08:57.894Z,15.16
2022-10-22T20:11:28.228Z,15.14
2022-10-22T20:13:56.817Z,15.10
2022-10-22T20:16:28.477Z,15.07
2022-10-22T20:18:57.203Z,15.04
2022-10-22T20:21:25.103Z,15.00
2022-10-22T20:23:56.362Z,14.96
2022-10-22T20:26:28.313Z,14.93
2022-10-22T20:28:56.939Z,14.89
2022-10-22T20:31:27.166Z,14.85
2022-10-22T20:33:57.317Z,14.83
2022-10-22T20:36:26.232Z,14.81
2022-10-22T20:38:54.339Z,14.77
2022-10-22T20:41:24.002Z,14.74
2022-10-22T20:43:53.496Z,14.72
2022-10-22T20:46:23.557Z,14.69
2022-10-22T20:48:52.377Z,14.66
2022-10-22T20:51:20.542Z,14.64
2022-10-22T20:53:48.918Z,14.62
2022-10-22T20:56:17.627Z,14.59
2022-10-22T20:58:48.499Z,14.57
2022-10-22T21:01:21.827Z,14.54
2022-10-22T21:03:50.844Z,14.53
2022-10-22T21:06:20.975Z,14.48
2022-10-22T21:08:48.968Z,14.46
2022-10-22T21:11:16.907Z,14.43
2022-10-22T21:13:44.780Z,14.42
2022-10-22T21:16:14.207Z,14.40
2022-10-22T21:18:43.388Z,14.40
2022-10-22T21:21:11.684Z,14.39
2022-10-22T21:23:39.873Z,14.38
2022-10-22T21:26:07.845Z,14.37
2022-10-22T21:28:37.175Z,14.35
2022-10-22T21:31:06.036Z,14.34
2022-10-22T21:33:37.366Z,14.31
2022-10-22T21:36:09.205Z,14.29
2022-10-22T21:38:38.122Z,14.29
2022-10-22T21:41:06.822Z,14.28
2022-10-22T21:43:35.197Z,14.27
2022-10-22T21:46:08.236Z,14.25
2022-10-22T21:48:36.981Z,14.23
2022-10-22T21:51:10.301Z,14.22
2022-10-22T21:53:38.959Z,14.23
2022-10-22T21:56:08.162Z,14.22
2022-10-22T21:58:36.055Z,14.23
2022-10-22T22:01:04.477Z,14.23
2022-10-22T22:03:32.333Z,14.25
2022-10-22T22:06:00.569Z,14.26
2022-10-22T22:08:29.982Z,14.27
2022-10-22T22:11:02.491Z,14.27
2022-10-22T22:13:30.423Z,14.29
2022-10-22T22:16:01.879Z,14.30
2022-10-22T22:18:30.615Z,14.30
2022-10-22T22:20:59.870Z,14.32
2022-10-22T22:23:29.095Z,14.31
2022-10-22T22:26:00.051Z,14.32
2022-10-22T22:28:28.231Z,14.32
2022-10-22T22:30:56.360Z,14.33
2022-10-22T22:33:24.441Z,14.34
2022-10-22T22:35:52.518Z,14.33
2022-10-22T22:38:20.315Z,14.34
2022-10-22T22:40:49.448Z,14.35
2022-10-22T22:43:17.249Z,14.33
2022-10-22T22:45:45.037Z,14.34
2022-10-22T22:48:12.851Z,14.35
2022-10-22T22:50:40.657Z,14.36
2022-10-22T22:53:08.599Z,14.36
2022-10-22T22:55:36.416Z,14.36
2022-10-22T22:58:05.580Z,14.37
2022-10-22T23:00:34.068Z,14.36
2022-10-22T23:03:02.061Z,14.37
2022-10-22T23:05:29.853Z,14.34
2022-10-22T23:07:57.980Z,14.33
2022-10-22T23:10:25.721Z,14.31
2022-10-22T23:12:53.499Z,14.30
2022-10-22T23:15:22.593Z,14.27
2022-10-22T23:17:50.413Z,14.26
2022-10-22T23:20:18.721Z,14.23
2022-10-22T23:22:46.525Z,14.20
2022-10-22T23:25:14.477Z,14.18
2022-10-22T23:27:42.485Z,14.16
2022-10-22T23:30:11.508Z,14.14
2022-10-22T23:32:40.629Z,14.14
2022-10-22T23:35:09.118Z,14.12
2022-10-22T23:37:36.909Z,14.10
2022-10-22T23:40:05.327Z,14.08
2022-10-22T23:42:33.159Z,14.05
2022-10-22T23:45:01.159Z,14.05
2022-10-22T23:47:29.080Z,14.02
2022-10-22T23:49:58.245Z,14.02
2022-10-22T23:52:26.023Z,13.98
2022-10-22T23:54:53.798Z,13.97
2022-10-22T23:57:21.815Z,13.95
2022-10-22T23:59:49.602Z,13.94
